Time;durP1;ratioP1;P1;durP2;ratioP2;P2;SDS_P1;SDS_P2;PMS_P1;PMS_P2;Temp;Humidity;BMP_temperature;BMP_pressure;BME280_temperature;BME280_humidity;BME280_pressure;Samples;Min_cycle;Max_cycle;Signal;HPM_P1;HPM_P2
2021/07/18 00:01:06;;;;;;;13.40;8.80;;;20.00;93.10;;;;;;4937947;29;20031;-73
2021/07/18 00:03:32;;;;;;;12.73;7.53;;;20.00;93.20;;;;;;4952704;28;20074;-73
2021/07/18 00:05:57;;;;;;;16.73;7.90;;;20.00;93.10;;;;;;4949498;28;20063;-73
2021/07/18 00:08:23;;;;;;;17.33;7.68;;;20.00;93.10;;;;;;4965658;28;20376;-73
2021/07/18 00:10:49;;;;;;;14.25;7.70;;;20.00;93.10;;;;;;4941004;29;20139;-74
2021/07/18 00:13:15;;;;;;;10.38;7.18;;;20.00;93.10;;;;;;4936819;29;20031;-74
2021/07/18 00:15:41;;;;;;;13.68;7.15;;;20.00;93.00;;;;;;4954084;29;20027;-74
2021/07/18 00:18:08;;;;;;;14.98;7.18;;;20.10;93.00;;;;;;4952924;29;20035;-75
2021/07/18 00:20:34;;;;;;;13.70;7.68;;;20.00;93.10;;;;;;4953921;29;20448;-73
2021/07/18 00:23:00;;;;;;;9.75;6.85;;;19.90;93.10;;;;;;4936352;29;20543;-74
2021/07/18 00:25:26;;;;;;;11.98;6.78;;;19.90;93.10;;;;;;4936939;29;20035;-73
2021/07/18 00:27:51;;;;;;;11.80;6.82;;;19.90;93.00;;;;;;4937671;29;20515;-73
2021/07/18 00:30:17;;;;;;;9.20;6.15;;;19.90;92.90;;;;;;4940863;29;20054;-74
2021/07/18 00:32:43;;;;;;;11.48;6.50;;;19.90;92.70;;;;;;4939823;29;20031;-76
2021/07/18 00:35:09;;;;;;;9.07;5.80;;;20.00;92.50;;;;;;4939863;29;20035;-74
2021/07/18 00:37:35;;;;;;;11.77;6.40;;;20.00;92.40;;;;;;4939943;29;20031;-74
2021/07/18 00:40:02;;;;;;;11.00;6.05;;;20.00;92.30;;;;;;4939472;29;20468;-73
2021/07/18 00:42:28;;;;;;;10.82;5.93;;;20.00;92.00;;;;;;4940400;29;20121;-73
2021/07/18 00:44:53;;;;;;;10.07;5.80;;;20.10;91.90;;;;;;4939579;29;20541;-73
2021/07/18 00:47:21;;;;;;;11.70;6.10;;;20.10;91.90;;;;;;4940083;29;20042;-73
2021/07/18 00:49:48;;;;;;;8.20;5.70;;;20.10;91.80;;;;;;4940006;29;20473;-77
2021/07/18 00:52:13;;;;;;;10.52;5.70;;;20.10;91.70;;;;;;4956671;29;20122;-73
2021/07/18 00:54:39;;;;;;;9.63;5.55;;;20.10;91.60;;;;;;4957315;29;20106;-73
2021/07/18 00:57:05;;;;;;;11.10;5.45;;;20.10;91.90;;;;;;4956306;29;20050;-73
2021/07/18 00:59:31;;;;;;;12.88;6.05;;;20.10;91.40;;;;;;4939720;29;20054;-73
2021/07/18 01:01:57;;;;;;;9.25;5.57;;;20.10;91.30;;;;;;4938088;29;20089;-73
2021/07/18 01:04:23;;;;;;;9.77;5.13;;;20.10;91.30;;;;;;4937793;29;20358;-72
2021/07/18 01:06:49;;;;;;;7.40;4.75;;;20.10;91.20;;;;;;4936681;29;20048;-76
2021/07/18 01:09:14;;;;;;;7.75;4.70;;;20.10;91.10;;;;;;4938093;29;20055;-74
2021/07/18 01:11:41;;;;;;;10.38;4.00;;;20.00;90.90;;;;;;4920383;29;20032;-73
2021/07/18 01:14:07;;;;;;;9.63;4.28;;;20.00;90.70;;;;;;4937278;29;20082;-73
2021/07/18 01:16:32;;;;;;;6.10;3.78;;;20.00;90.40;;;;;;4937435;29;20028;-73
2021/07/18 01:18:58;;;;;;;7.30;3.85;;;20.00;90.10;;;;;;4937128;29;20027;-73
2021/07/18 01:21:25;;;;;;;7.53;3.45;;;20.00;90.00;;;;;;4937144;29;20520;-73
2021/07/18 01:23:53;;;;;;;5.18;3.13;;;19.90;89.40;;;;;;4919868;29;20362;-74
2021/07/18 01:26:19;;;;;;;4.82;3.00;;;19.90;89.20;;;;;;4920543;29;20248;-73
2021/07/18 01:28:46;;;;;;;4.47;2.83;;;19.90;88.60;;;;;;4937852;29;20359;-72
2021/07/18 01:31:12;;;;;;;5.57;2.72;;;19.80;88.10;;;;;;4920202;29;20028;-72
2021/07/18 01:33:38;;;;;;;5.63;2.70;;;19.80;87.90;;;;;;4920240;29;20035;-73
2021/07/18 01:36:03;;;;;;;6.47;2.65;;;19.80;87.60;;;;;;4937581;29;20038;-72
2021/07/18 01:38:29;;;;;;;5.55;2.53;;;19.80;87.50;;;;;;4921188;29;20035;-73
2021/07/18 01:40:55;;;;;;;7.65;2.30;;;19.80;87.20;;;;;;4936946;29;20347;-72
2021/07/18 01:43:21;;;;;;;5.85;2.60;;;19.70;87.10;;;;;;4920619;29;20118;-72
2021/07/18 01:45:47;;;;;;;3.42;2.22;;;19.70;86.70;;;;;;4920585;29;20040;-76
2021/07/18 01:48:13;;;;;;;3.53;2.25;;;19.70;86.50;;;;;;4937022;29;20024;-72
2021/07/18 01:50:38;;;;;;;3.80;2.15;;;19.70;86.20;;;;;;4919961;29;20123;-72
2021/07/18 01:53:05;;;;;;;4.60;2.42;;;19.70;86.20;;;;;;4919966;29;20476;-73
2021/07/18 01:55:31;;;;;;;3.72;2.15;;;19.70;86.20;;;;;;4937510;29;20035;-73
2021/07/18 01:57:57;;;;;;;5.95;2.10;;;19.70;86.10;;;;;;4920044;29;20032;-73
2021/07/18 02:00:23;;;;;;;7.97;2.85;;;19.70;85.90;;;;;;4920655;29;20028;-72
2021/07/18 02:02:51;;;;;;;3.15;2.35;;;19.60;85.90;;;;;;4937354;29;20070;-76
2021/07/18 02:05:18;;;;;;;4.80;1.90;;;19.60;85.90;;;;;;4937111;29;20373;-72
2021/07/18 02:07:45;;;;;;;4.75;2.47;;;19.70;86.00;;;;;;4920106;29;20135;-72
2021/07/18 02:10:11;;;;;;;5.22;2.33;;;19.60;85.90;;;;;;4936820;29;20119;-72
2021/07/18 02:12:38;;;;;;;4.50;2.35;;;19.60;86.10;;;;;;4937243;29;20036;-72
2021/07/18 02:15:09;;;;;;;5.97;2.45;;;19.60;86.30;;;;;;4919370;29;20035;-73
2021/07/18 02:17:36;;;;;;;4.18;2.30;;;19.60;86.40;;;;;;4920364;29;20028;-72
2021/07/18 02:20:06;;;;;;;5.43;2.15;;;19.60;86.40;;;;;;4919584;29;20075;-73
2021/07/18 02:22:42;;;;;;;4.03;2.20;;;19.60;86.50;;;;;;4937356;29;20140;-73
2021/07/18 02:25:08;;;;;;;5.07;2.13;;;19.60;86.70;;;;;;4936483;29;20047;-73
2021/07/18 02:27:34;;;;;;;4.68;2.15;;;19.50;86.60;;;;;;4936631;29;20055;-73
2021/07/18 02:29:59;;;;;;;4.50;2.20;;;19.50;86.60;;;;;;4919398;29;20027;-73
2021/07/18 02:32:25;;;;;;;4.78;2.15;;;19.50;86.80;;;;;;4936532;29;20070;-73
2021/07/18 02:34:50;;;;;;;5.35;2.38;;;19.50;86.90;;;;;;4936654;29;20043;-77
2021/07/18 02:37:16;;;;;;;5.22;2.20;;;19.40;87.00;;;;;;4936666;29;20063;-72
2021/07/18 02:39:42;;;;;;;7.18;2.50;;;19.40;87.00;;;;;;4936442;29;20388;-72
2021/07/18 02:42:08;;;;;;;4.93;2.30;;;19.40;87.00;;;;;;4919136;29;20528;-73
2021/07/18 02:44:34;;;;;;;3.85;2.10;;;19.40;86.90;;;;;;4919483;29;20031;-73
2021/07/18 02:46:59;;;;;;;4.07;1.98;;;19.40;87.00;;;;;;4919010;29;20362;-73
2021/07/18 02:49:25;;;;;;;5.65;2.42;;;19.40;87.00;;;;;;4918809;29;20054;-73
2021/07/18 02:51:50;;;;;;;8.27;2.33;;;19.30;86.90;;;;;;4936321;29;20039;-75
2021/07/18 02:54:16;;;;;;;6.88;1.92;;;19.30;86.90;;;;;;4918412;29;20031;-73
2021/07/18 02:56:42;;;;;;;4.30;1.88;;;19.30;86.70;;;;;;4936149;29;20385;-73
2021/07/18 02:59:08;;;;;;;4.15;1.98;;;19.30;86.70;;;;;;4918349;29;20097;-73
2021/07/18 03:01:33;;;;;;;5.07;2.30;;;19.30;86.80;;;;;;4936268;29;20106;-72
2021/07/18 03:03:59;;;;;;;3.50;1.85;;;19.30;86.70;;;;;;4935442;29;20024;-73
2021/07/18 03:06:24;;;;;;;4.30;2.00;;;19.30;86.70;;;;;;4918557;29;20066;-72
2021/07/18 03:08:50;;;;;;;3.78;2.00;;;19.20;86.60;;;;;;4936009;29;20501;-72
2021/07/18 03:11:15;;;;;;;3.83;1.77;;;19.30;86.60;;;;;;4918470;29;20035;-73
2021/07/18 03:13:41;;;;;;;4.93;1.85;;;19.20;86.40;;;;;;4935695;29;20083;-73
2021/07/18 03:16:07;;;;;;;2.60;1.33;;;19.20;86.50;;;;;;4918464;29;20512;-73
2021/07/18 03:18:32;;;;;;;3.97;1.85;;;19.20;86.40;;;;;;4936042;29;20377;-72
2021/07/18 03:20:58;;;;;;;2.33;1.40;;;19.20;86.10;;;;;;4935678;29;20031;-73
2021/07/18 03:23:24;;;;;;;3.22;1.50;;;19.10;85.90;;;;;;4935365;29;20032;-73
2021/07/18 03:25:49;;;;;;;3.08;1.33;;;19.10;86.00;;;;;;4918707;29;20035;-73
2021/07/18 03:28:15;;;;;;;3.13;1.50;;;19.10;86.10;;;;;;4918227;29;20028;-72
2021/07/18 03:30:41;;;;;;;3.75;1.95;;;19.10;85.90;;;;;;4935909;29;20032;-73
2021/07/18 03:33:06;;;;;;;4.60;1.38;;;19.10;85.90;;;;;;4935026;29;20103;-73
2021/07/18 03:35:32;;;;;;;3.35;1.27;;;19.10;86.10;;;;;;4935976;29;20028;-72
2021/07/18 03:37:58;;;;;;;6.88;1.58;;;19.00;86.10;;;;;;4918091;29;20397;-76
2021/07/18 03:40:24;;;;;;;3.67;1.70;;;19.00;86.60;;;;;;4935965;29;20043;-72
2021/07/18 03:42:50;;;;;;;4.07;1.55;;;19.00;86.30;;;;;;4918743;29;20028;-72
2021/07/18 03:45:16;;;;;;;2.40;1.20;;;19.00;86.50;;;;;;4934602;29;20038;-72
2021/07/18 03:47:42;;;;;;;4.30;1.55;;;19.00;86.50;;;;;;4918097;29;20383;-72
2021/07/18 03:50:08;;;;;;;4.55;1.42;;;18.90;86.60;;;;;;4934817;29;20028;-73
2021/07/18 03:52:34;;;;;;;2.55;1.40;;;18.90;86.80;;;;;;4918549;29;20050;-72
2021/07/18 03:55:00;;;;;;;2.70;1.30;;;18.90;86.80;;;;;;4917686;29;20109;-73
2021/07/18 03:57:26;;;;;;;3.15;1.35;;;18.90;87.00;;;;;;4934914;29;20056;-72
2021/07/18 03:59:51;;;;;;;2.63;1.52;;;18.90;87.50;;;;;;4917651;29;20028;-73
2021/07/18 04:02:18;;;;;;;3.72;1.40;;;18.80;87.40;;;;;;4933900;29;20023;-73
2021/07/18 04:04:43;;;;;;;2.80;1.50;;;18.80;87.40;;;;;;4935183;29;20042;-73
2021/07/18 04:07:09;;;;;;;4.93;1.30;;;18.70;87.30;;;;;;4917343;29;20436;-74
2021/07/18 04:09:34;;;;;;;2.15;1.30;;;18.70;87.70;;;;;;4917976;29;20083;-73
2021/07/18 04:12:00;;;;;;;3.13;1.17;;;18.70;88.10;;;;;;4917054;29;20027;-75
2021/07/18 04:14:26;;;;;;;2.97;1.52;;;18.70;87.90;;;;;;4917898;29;20062;-73
2021/07/18 04:16:51;;;;;;;3.00;1.33;;;18.60;88.00;;;;;;4918037;29;20078;-74
2021/07/18 04:19:17;;;;;;;1.50;1.15;;;18.60;88.20;;;;;;4917059;29;20479;-73
2021/07/18 04:21:42;;;;;;;2.50;1.10;;;18.60;88.20;;;;;;4935333;29;20039;-73
2021/07/18 04:24:08;;;;;;;6.22;1.35;;;18.60;88.50;;;;;;4934273;29;20433;-74
2021/07/18 04:26:34;;;;;;;3.55;1.33;;;18.50;88.30;;;;;;4918151;29;20505;-73
2021/07/18 04:28:59;;;;;;;2.30;1.30;;;18.50;88.80;;;;;;4934923;29;20043;-76
2021/07/18 04:31:25;;;;;;;2.45;1.20;;;18.40;89.40;;;;;;4918079;29;20397;-73
2021/07/18 04:33:51;;;;;;;3.42;1.35;;;18.30;89.90;;;;;;4918303;29;20060;-73
2021/07/18 04:36:18;;;;;;;5.00;1.35;;;18.30;90.00;;;;;;4917571;29;20046;-73
2021/07/18 04:38:44;;;;;;;4.63;1.50;;;18.20;90.30;;;;;;4918141;29;20500;-73
2021/07/18 04:41:09;;;;;;;4.47;1.40;;;18.10;90.40;;;;;;4934684;29;20114;-73
2021/07/18 04:43:35;;;;;;;3.83;1.63;;;18.00;90.60;;;;;;4934897;29;20027;-73
2021/07/18 04:46:01;;;;;;;6.75;1.60;;;18.00;90.70;;;;;;4934707;29;20036;-77
2021/07/18 04:48:26;;;;;;;4.78;1.95;;;18.00;90.60;;;;;;4917630;29;20115;-73
2021/07/18 04:50:52;;;;;;;3.63;1.80;;;18.10;90.70;;;;;;4917945;29;20035;-73
2021/07/18 04:53:20;;;;;;;4.97;1.63;;;18.00;90.70;;;;;;4934499;29;20039;-73
2021/07/18 04:55:46;;;;;;;4.55;1.95;;;18.10;90.80;;;;;;4934950;29;20031;-73
2021/07/18 04:58:12;;;;;;;4.10;1.80;;;18.00;91.00;;;;;;4934410;29;20028;-73
2021/07/18 05:00:37;;;;;;;3.72;1.55;;;18.00;91.00;;;;;;4935122;29;20488;-73
2021/07/18 05:03:03;;;;;;;6.32;2.20;;;18.00;91.10;;;;;;4916763;29;20036;-76
2021/07/18 05:05:29;;;;;;;5.22;2.00;;;17.90;91.20;;;;;;4917827;29;20542;-73
2021/07/18 05:07:56;;;;;;;5.30;2.15;;;17.90;91.30;;;;;;4915680;29;20048;-73
2021/07/18 05:10:24;;;;;;;3.03;2.30;;;18.00;91.40;;;;;;4915344;29;20629;-73
2021/07/18 05:12:52;;;;;;;4.70;2.35;;;18.00;91.60;;;;;;4915986;29;20088;-73
2021/07/18 05:15:19;;;;;;;6.55;2.20;;;18.00;91.70;;;;;;4918609;29;20433;-73
2021/07/18 05:17:45;;;;;;;3.67;2.35;;;17.90;91.80;;;;;;4919058;29;20031;-73
2021/07/18 05:20:13;;;;;;;3.80;2.20;;;17.90;91.80;;;;;;4918335;29;20028;-73
2021/07/18 05:22:39;;;;;;;3.88;2.15;;;17.90;91.90;;;;;;4902167;29;20462;-73
2021/07/18 05:25:06;;;;;;;4.80;2.05;;;18.00;91.80;;;;;;4917796;29;20040;-76
2021/07/18 05:27:32;;;;;;;4.90;2.08;;;18.00;91.70;;;;;;4902086;29;20028;-72
2021/07/18 05:29:58;;;;;;;5.07;2.20;;;18.00;91.60;;;;;;4919035;29;20024;-72
2021/07/18 05:32:24;;;;;;;5.55;1.98;;;18.10;91.10;;;;;;4901513;29;20549;-73
2021/07/18 05:34:50;;;;;;;3.38;2.00;;;18.10;91.20;;;;;;4902083;29;20032;-72
2021/07/18 05:37:16;;;;;;;5.00;2.00;;;18.20;91.00;;;;;;4901024;29;20035;-73
2021/07/18 05:39:42;;;;;;;2.95;1.63;;;18.20;90.90;;;;;;4901961;29;20576;-73
2021/07/18 05:42:07;;;;;;;4.25;1.90;;;18.30;90.80;;;;;;4918089;29;20024;-73
2021/07/18 05:44:33;;;;;;;4.63;1.70;;;18.40;90.50;;;;;;4901719;29;20493;-73
2021/07/18 05:46:59;;;;;;;3.92;2.03;;;18.40;90.20;;;;;;4918783;29;20029;-73
2021/07/18 05:49:25;;;;;;;6.03;1.80;;;18.40;90.30;;;;;;4917752;29;20059;-73
2021/07/18 05:51:50;;;;;;;4.95;1.60;;;18.50;90.10;;;;;;4901697;29;20039;-73
2021/07/18 05:54:16;;;;;;;2.30;1.50;;;18.50;90.00;;;;;;4900862;29;20083;-73
2021/07/18 05:56:41;;;;;;;2.70;1.42;;;18.60;90.00;;;;;;4918053;29;20095;-73
2021/07/18 05:59:07;;;;;;;3.92;1.60;;;18.60;90.00;;;;;;4917790;29;20024;-74
2021/07/18 06:01:33;;;;;;;3.17;1.60;;;18.60;89.90;;;;;;4901565;29;20115;-73
2021/07/18 06:03:58;;;;;;;4.30;1.55;;;18.70;90.10;;;;;;4900941;29;20056;-72
2021/07/18 06:06:24;;;;;;;3.05;1.10;;;18.70;90.10;;;;;;4907500;29;20051;-73
2021/07/18 06:08:50;;;;;;;3.08;1.48;;;18.70;90.00;;;;;;4965621;28;20637;-73
2021/07/18 06:11:16;;;;;;;4.70;1.50;;;18.80;89.00;;;;;;4976343;28;20031;-72
2021/07/18 06:13:42;;;;;;;6.00;1.65;;;18.80;88.40;;;;;;4957697;28;20033;-72
2021/07/18 06:16:08;;;;;;;2.15;1.27;;;18.80;88.20;;;;;;4974571;28;20102;-75
2021/07/18 06:18:34;;;;;;;4.63;1.23;;;18.80;88.50;;;;;;4975557;28;20030;-73
2021/07/18 06:21:00;;;;;;;3.05;1.42;;;18.80;88.60;;;;;;4957953;28;20039;-73
2021/07/18 06:23:26;;;;;;;1.98;0.98;;;18.80;88.40;;;;;;4974818;28;20027;-73
2021/07/18 06:25:51;;;;;;;1.98;1.00;;;18.90;87.80;;;;;;4974852;28;20026;-73
2021/07/18 06:28:17;;;;;;;3.50;1.20;;;18.90;87.80;;;;;;4957044;28;20058;-73
2021/07/18 06:30:43;;;;;;;4.10;1.17;;;18.90;87.50;;;;;;4958093;28;20066;-73
2021/07/18 06:33:08;;;;;;;4.20;1.25;;;19.00;87.90;;;;;;4974930;28;20069;-75
2021/07/18 06:35:34;;;;;;;3.05;1.23;;;19.00;87.60;;;;;;4957251;28;20027;-72
2021/07/18 06:38:01;;;;;;;4.63;1.27;;;19.00;87.60;;;;;;4947477;29;20468;-73
2021/07/18 06:40:26;;;;;;;2.13;1.33;;;19.10;87.80;;;;;;4955296;29;20039;-73
2021/07/18 06:42:52;;;;;;;7.47;2.03;;;19.10;87.70;;;;;;4955510;29;20027;-73
2021/07/18 06:45:17;;;;;;;3.08;1.20;;;19.10;87.60;;;;;;4954496;29;20496;-73
2021/07/18 06:47:43;;;;;;;3.72;1.20;;;19.20;88.30;;;;;;4938477;29;20031;-73
2021/07/18 06:50:10;;;;;;;3.33;1.33;;;19.20;87.10;;;;;;4954929;29;20035;-76
2021/07/18 06:52:35;;;;;;;2.65;1.50;;;19.30;86.90;;;;;;4955806;29;20122;-73
2021/07/18 06:55:01;;;;;;;3.15;1.30;;;19.40;87.00;;;;;;4955334;29;20473;-73
2021/07/18 06:57:27;;;;;;;3.75;1.20;;;19.40;86.90;;;;;;4937589;29;20023;-73
2021/07/18 06:59:53;;;;;;;4.57;1.20;;;19.40;86.70;;;;;;4938352;29;20023;-73
2021/07/18 07:02:18;;;;;;;6.40;1.60;;;19.40;86.50;;;;;;4954364;29;20055;-73
2021/07/18 07:04:44;;;;;;;2.22;1.00;;;19.50;86.70;;;;;;4955438;29;20474;-73
2021/07/18 07:07:10;;;;;;;2.65;1.40;;;19.50;85.80;;;;;;4936979;29;20046;-77
2021/07/18 07:09:36;;;;;;;3.20;0.90;;;19.50;85.70;;;;;;4938482;29;20035;-73
2021/07/18 07:12:02;;;;;;;2.53;1.25;;;19.50;86.00;;;;;;4937461;29;20027;-73
2021/07/18 07:14:27;;;;;;;2.95;1.15;;;19.50;85.40;;;;;;4954769;29;20578;-73
2021/07/18 07:16:53;;;;;;;3.30;1.13;;;19.60;85.60;;;;;;4938085;29;20023;-73
2021/07/18 07:19:19;;;;;;;6.20;1.60;;;19.60;85.70;;;;;;4954747;29;20031;-73
2021/07/18 07:21:44;;;;;;;4.72;1.58;;;19.60;85.80;;;;;;4954797;29;20429;-73
2021/07/18 07:24:10;;;;;;;2.25;1.10;;;19.70;85.30;;;;;;4937362;29;20077;-77
2021/07/18 07:26:36;;;;;;;3.33;1.00;;;19.70;84.70;;;;;;4954263;29;20088;-73
2021/07/18 07:29:02;;;;;;;1.73;0.82;;;19.70;84.70;;;;;;4954613;29;20031;-73
2021/07/18 07:31:28;;;;;;;3.50;1.17;;;19.70;84.40;;;;;;4924296;29;20027;-73
2021/07/18 07:33:54;;;;;;;2.75;1.17;;;19.80;84.70;;;;;;4917791;29;20028;-73
2021/07/18 07:36:20;;;;;;;3.55;1.15;;;19.90;84.90;;;;;;4933977;29;20032;-73
2021/07/18 07:38:45;;;;;;;2.38;1.42;;;19.80;84.00;;;;;;4950685;29;20376;-73
2021/07/18 07:41:11;;;;;;;1.85;1.05;;;19.90;84.50;;;;;;4937313;29;20031;-73
2021/07/18 07:43:37;;;;;;;3.08;1.33;;;19.90;84.20;;;;;;4937709;29;20031;-73
2021/07/18 07:46:03;;;;;;;3.08;1.20;;;19.90;84.10;;;;;;4954610;29;20184;-73
2021/07/18 07:48:29;;;;;;;2.10;1.10;;;19.90;84.00;;;;;;4954230;29;20034;-73
2021/07/18 07:50:58;;;;;;;2.88;1.15;;;19.90;84.20;;;;;;4953718;29;20027;-72
2021/07/18 07:53:25;;;;;;;5.95;1.55;;;19.90;83.40;;;;;;4937030;29;20030;-73
2021/07/18 07:55:51;;;;;;;3.25;1.05;;;20.00;83.50;;;;;;4954375;29;20106;-73
2021/07/18 07:58:17;;;;;;;2.85;1.10;;;20.00;83.20;;;;;;4937019;29;20062;-73
2021/07/18 08:00:44;;;;;;;3.63;1.27;;;20.00;83.30;;;;;;4954331;29;20063;-73
2021/07/18 08:03:09;;;;;;;2.70;0.98;;;20.10;83.50;;;;;;4954580;29;20027;-78
2021/07/18 08:05:36;;;;;;;4.13;1.02;;;20.10;83.20;;;;;;4953859;29;20417;-73
2021/07/18 08:08:03;;;;;;;4.95;1.08;;;20.20;82.90;;;;;;4936535;29;20055;-73
2021/07/18 08:10:29;;;;;;;1.75;1.00;;;20.20;82.20;;;;;;4953603;29;20031;-73
2021/07/18 08:12:54;;;;;;;2.15;1.00;;;20.20;82.70;;;;;;4937233;29;20424;-72
2021/07/18 08:15:22;;;;;;;2.72;1.20;;;20.20;81.70;;;;;;4936709;29;20142;-73
2021/07/18 08:17:48;;;;;;;6.05;1.58;;;20.20;81.30;;;;;;4954512;29;20106;-73
2021/07/18 08:20:16;;;;;;;3.03;1.10;;;20.30;81.70;;;;;;4954424;29;20106;-77
2021/07/18 08:22:45;;;;;;;5.22;1.27;;;20.30;80.80;;;;;;4954152;29;20070;-72
2021/07/18 08:25:13;;;;;;;3.70;1.10;;;20.30;80.50;;;;;;4937126;29;20050;-74
2021/07/18 08:27:38;;;;;;;3.38;1.10;;;20.30;80.90;;;;;;4937206;29;20023;-73
2021/07/18 08:30:05;;;;;;;2.15;1.10;;;20.40;81.90;;;;;;4954430;29;20034;-73
2021/07/18 08:32:31;;;;;;;2.92;1.10;;;20.50;81.80;;;;;;4952795;29;20511;-73
2021/07/18 08:34:57;;;;;;;1.83;1.10;;;20.50;82.20;;;;;;4954101;29;20042;-73
2021/07/18 08:37:22;;;;;;;2.22;1.00;;;20.50;81.30;;;;;;4936485;29;20031;-73
2021/07/18 08:39:48;;;;;;;2.10;1.30;;;20.50;80.80;;;;;;4954314;29;20039;-73
2021/07/18 08:42:15;;;;;;;5.97;1.48;;;20.60;81.70;;;;;;4936777;29;20027;-76
2021/07/18 08:44:41;;;;;;;2.85;1.20;;;20.50;81.50;;;;;;4937047;29;20481;-73
2021/07/18 08:47:07;;;;;;;3.83;1.35;;;20.60;81.80;;;;;;4954033;29;20039;-73
2021/07/18 08:49:33;;;;;;;5.43;1.40;;;20.60;81.60;;;;;;4955770;28;20028;-73
2021/07/18 08:51:59;;;;;;;1.40;1.20;;;20.70;81.80;;;;;;4957788;29;20469;-73
2021/07/18 08:54:26;;;;;;;5.47;1.20;;;20.70;81.20;;;;;;4957358;29;20118;-73
2021/07/18 08:56:53;;;;;;;6.65;1.92;;;20.80;81.60;;;;;;4957803;29;20027;-73
2021/07/18 08:59:19;;;;;;;5.28;1.88;;;20.80;81.90;;;;;;4956347;29;20058;-73
2021/07/18 09:01:45;;;;;;;2.38;1.00;;;20.80;81.90;;;;;;4957302;29;20075;-73
2021/07/18 09:04:11;;;;;;;2.85;1.40;;;20.90;81.80;;;;;;4957289;29;20445;-73
2021/07/18 09:06:42;;;;;;;3.13;1.48;;;20.90;81.90;;;;;;4939280;29;20138;-73
2021/07/18 09:09:11;;;;;;;5.35;1.17;;;20.90;82.70;;;;;;4940423;29;20054;-74
2021/07/18 09:11:37;;;;;;;3.00;1.33;;;20.90;81.60;;;;;;4951269;29;20058;-76
2021/07/18 09:14:05;;;;;;;7.20;1.70;;;20.90;80.90;;;;;;4931986;29;20051;-76
2021/07/18 09:16:41;;;;;;;2.10;1.30;;;21.00;80.90;;;;;;4937251;29;20046;-75
2021/07/18 09:19:25;;;;;;;3.78;1.20;;;21.00;80.70;;;;;;4932362;29;20082;-76
2021/07/18 09:22:07;;;;;;;3.08;1.27;;;21.10;81.00;;;;;;4953130;28;20369;-75
2021/07/18 09:24:43;;;;;;;4.45;1.80;;;21.10;80.50;;;;;;4949738;29;20035;-76
2021/07/18 09:27:13;;;;;;;6.40;1.30;;;21.10;80.40;;;;;;4934806;29;20368;-76
2021/07/18 09:29:41;;;;;;;3.72;1.20;;;21.20;79.70;;;;;;4939165;29;20037;-76
2021/07/18 09:32:12;;;;;;;3.50;1.00;;;21.20;79.40;;;;;;4954603;29;20034;-76
2021/07/18 09:34:41;;;;;;;2.78;1.20;;;21.20;79.40;;;;;;4939179;29;20488;-75
2021/07/18 09:37:11;;;;;;;2.70;1.45;;;21.30;79.00;;;;;;4950462;29;20027;-73
2021/07/18 09:39:45;;;;;;;2.88;1.10;;;21.30;79.20;;;;;;4943877;29;20028;-75
2021/07/18 09:42:33;;;;;;;3.00;1.20;;;21.30;79.20;;;;;;4920411;29;20119;-73
2021/07/18 09:44:59;;;;;;;4.28;1.23;;;21.30;78.50;;;;;;4930372;29;20062;-75
2021/07/18 09:47:25;;;;;;;4.20;1.60;;;21.40;79.00;;;;;;4942452;29;20134;-74
2021/07/18 09:49:51;;;;;;;3.63;1.30;;;21.50;79.90;;;;;;4953157;29;20031;-74
2021/07/18 09:52:28;;;;;;;4.53;1.45;;;21.50;78.80;;;;;;4941967;29;20483;-76
2021/07/18 09:54:56;;;;;;;2.25;1.20;;;21.50;78.60;;;;;;4929506;29;20487;-75
2021/07/18 09:57:33;;;;;;;6.30;1.60;;;21.50;78.70;;;;;;4950642;29;20023;-75
2021/07/18 09:59:59;;;;;;;3.00;1.48;;;21.60;78.50;;;;;;4923590;29;20038;-77
2021/07/18 10:02:29;;;;;;;3.60;1.40;;;21.60;78.60;;;;;;4942315;29;20019;-75
2021/07/18 10:04:56;;;;;;;2.80;1.48;;;21.60;78.50;;;;;;4928979;29;20485;-74
2021/07/18 10:07:28;;;;;;;3.85;1.15;;;21.60;79.00;;;;;;4931828;29;20134;-74
2021/07/18 10:09:54;;;;;;;3.25;1.50;;;21.70;78.90;;;;;;4953485;29;20044;-75
2021/07/18 10:12:20;;;;;;;2.75;1.35;;;21.90;78.80;;;;;;4919632;29;20092;-74
2021/07/18 10:14:46;;;;;;;3.53;1.55;;;21.90;78.30;;;;;;4945253;28;20038;-76
2021/07/18 10:17:12;;;;;;;5.25;1.30;;;21.90;78.00;;;;;;4930904;29;20027;-74
2021/07/18 10:19:38;;;;;;;2.90;1.55;;;21.90;77.60;;;;;;4955232;29;20038;-74
2021/07/18 10:22:05;;;;;;;5.00;1.20;;;21.90;77.70;;;;;;4939713;29;20016;-76
2021/07/18 10:24:33;;;;;;;4.43;1.40;;;21.90;78.40;;;;;;4949313;29;20039;-76
2021/07/18 10:27:02;;;;;;;3.65;1.70;;;22.00;78.70;;;;;;4938563;29;20170;-77
2021/07/18 10:29:31;;;;;;;2.88;1.40;;;22.00;78.00;;;;;;4955284;29;20102;-77
2021/07/18 10:32:03;;;;;;;4.32;1.35;;;22.00;76.90;;;;;;4936349;29;20029;-74
2021/07/18 10:34:30;;;;;;;2.60;1.20;;;22.10;76.60;;;;;;4940039;29;20036;-74
2021/07/18 10:36:56;;;;;;;5.72;1.55;;;22.10;76.90;;;;;;4954202;29;20056;-74
2021/07/18 10:39:35;;;;;;;5.35;1.50;;;22.10;77.60;;;;;;4954798;29;20377;-74
2021/07/18 10:42:07;;;;;;;4.75;1.65;;;22.10;78.10;;;;;;4939952;29;20023;-77
2021/07/18 10:44:50;;;;;;;2.60;1.30;;;22.20;77.10;;;;;;4936937;29;20502;-76
2021/07/18 10:47:16;;;;;;;2.40;1.20;;;22.20;77.00;;;;;;4943119;29;20028;-76
2021/07/18 10:49:49;;;;;;;6.00;1.70;;;22.20;76.70;;;;;;4953111;29;20031;-74
2021/07/18 10:52:16;;;;;;;4.65;1.33;;;22.20;76.70;;;;;;4937896;29;20028;-77
2021/07/18 10:54:42;;;;;;;3.70;1.40;;;22.30;76.60;;;;;;4932852;29;20031;-74
2021/07/18 10:57:21;;;;;;;4.55;1.50;;;22.40;76.70;;;;;;4955066;29;20031;-76
2021/07/18 10:59:47;;;;;;;2.08;1.20;;;22.50;75.60;;;;;;4954655;29;20035;-74
2021/07/18 11:02:18;;;;;;;2.55;1.23;;;22.50;75.50;;;;;;4952460;29;20054;-75
2021/07/18 11:04:50;;;;;;;3.25;1.42;;;22.60;76.90;;;;;;4929019;29;20397;-76
2021/07/18 11:07:21;;;;;;;;;;;22.70;74.40;;;;;;4951346;29;20130;-77
2021/07/18 11:10:09;;;;;;;2.53;1.30;;;22.70;73.30;;;;;;4949710;29;19996;-76
2021/07/18 11:12:38;;;;;;;3.53;1.27;;;22.80;71.90;;;;;;4950210;28;20061;-74
2021/07/18 11:15:15;;;;;;;5.78;1.73;;;22.80;72.20;;;;;;4934534;29;20042;-75
2021/07/18 11:18:01;;;;;;;5.85;1.65;;;22.80;72.50;;;;;;4934201;29;20023;-76
2021/07/18 11:20:43;;;;;;;4.30;1.70;;;22.90;72.60;;;;;;4928896;29;20024;-75
2021/07/18 11:23:11;;;;;;;3.22;1.55;;;23.00;73.00;;;;;;4947553;29;20031;-77
2021/07/18 11:25:47;;;;;;;4.88;1.50;;;23.10;73.10;;;;;;4921700;29;20090;-75
2021/07/18 11:28:28;;;;;;;3.10;1.55;;;23.20;73.50;;;;;;4922982;29;20023;-75
2021/07/18 11:31:34;;;;;;;3.30;1.40;;;23.30;72.60;;;;;;4945357;29;20082;-75
2021/07/18 11:34:12;;;;;;;4.72;1.38;;;23.30;72.60;;;;;;4912931;29;20111;-75
2021/07/18 11:36:40;;;;;;;3.92;1.20;;;23.40;72.70;;;;;;4925352;29;20086;-74
2021/07/18 11:39:11;;;;;;;3.15;1.50;;;23.50;73.10;;;;;;4954648;29;20051;-75
2021/07/18 11:41:36;;;;;;;2.17;1.30;;;23.50;72.90;;;;;;4921609;29;20385;-74
2021/07/18 11:44:03;;;;;;;5.03;1.50;;;23.50;72.80;;;;;;4950924;29;20028;-75
2021/07/18 11:46:34;;;;;;;3.65;1.60;;;23.50;72.20;;;;;;4924391;29;20035;-76
2021/07/18 11:49:01;;;;;;;2.90;1.40;;;23.60;72.60;;;;;;4932625;29;20027;-76
2021/07/18 11:51:28;;;;;;;5.13;1.83;;;23.60;71.50;;;;;;4952022;29;20024;-76
2021/07/18 11:53:57;;;;;;;3.92;1.67;;;23.70;72.20;;;;;;4935215;29;20077;-75
2021/07/18 11:56:25;;;;;;;3.33;1.60;;;23.80;71.20;;;;;;4948281;29;20130;-75
2021/07/18 11:58:52;;;;;;;4.45;1.42;;;23.80;72.00;;;;;;4934288;29;20027;-75
2021/07/18 12:01:26;;;;;;;4.38;1.60;;;24.00;71.60;;;;;;4934221;29;20034;-77
2021/07/18 12:03:52;;;;;;;2.95;1.40;;;24.00;71.70;;;;;;4951356;29;20388;-78
2021/07/18 12:06:20;;;;;;;4.88;1.40;;;24.10;71.40;;;;;;4940048;29;20054;-73
2021/07/18 12:08:46;;;;;;;3.47;1.50;;;24.10;71.10;;;;;;4945593;29;20111;-77
2021/07/18 12:11:13;;;;;;;3.58;1.70;;;24.30;70.40;;;;;;4930018;29;20045;-75
2021/07/18 12:13:43;;;;;;;4.20;1.90;;;24.30;69.70;;;;;;4938115;29;20023;-75
2021/07/18 12:16:09;;;;;;;8.82;1.98;;;24.30;69.30;;;;;;4951242;29;20038;-74
2021/07/18 12:18:43;;;;;;;9.52;1.80;;;24.40;69.00;;;;;;4932484;29;20376;-74
2021/07/18 12:21:25;;;;;;;2.78;1.60;;;24.50;69.70;;;;;;4954260;29;20536;-75
2021/07/18 12:24:17;;;;;;;5.90;2.15;;;24.60;68.60;;;;;;4928893;29;20044;-74
2021/07/18 12:26:46;;;;;;;5.28;2.10;;;24.60;68.10;;;;;;4940267;29;20034;-75
2021/07/18 12:29:14;;;;;;;4.45;1.90;;;24.70;67.00;;;;;;4945615;29;20046;-75
2021/07/18 12:31:43;;;;;;;2.70;2.00;;;24.80;67.40;;;;;;4953707;29;20179;-77
2021/07/18 12:34:10;;;;;;;6.28;2.17;;;24.90;66.90;;;;;;4940748;29;20031;-77
2021/07/18 12:37:11;;;;;;;6.80;2.42;;;25.00;66.00;;;;;;4957334;29;20456;-75
2021/07/18 12:39:42;;;;;;;4.72;2.00;;;25.10;64.10;;;;;;4939842;29;20061;-75
2021/07/18 12:42:11;;;;;;;4.93;2.38;;;25.20;64.40;;;;;;4938847;29;20031;-79
2021/07/18 12:44:45;;;;;;;7.63;2.50;;;25.30;63.20;;;;;;4921871;29;20035;-78
2021/07/18 12:47:17;;;;;;;80.95;40.00;;;25.40;62.70;;;;;;4933562;29;20130;-75